Time;durP1;ratioP1;P1;durP2;ratioP2;P2;SDS_P1;SDS_P2;PMS_P1;PMS_P2;Temp;Humidity;BMP_temperature;BMP_pressure;BME280_temperature;BME280_humidity;BME280_pressure;Samples;Min_cycle;Max_cycle;Signal;HPM_P1;HPM_P2
2022/08/14 00:02:27;;;;;;;5.35;2.70;;;;;;;23.68;60.28;101183.91;6247877;28;20052;-80
2022/08/14 00:05:28;;;;;;;4.45;2.70;;;;;;;23.63;60.27;101190.72;6254900;28;20057;-81
2022/08/14 00:08:30;;;;;;;3.55;2.38;;;;;;;23.57;60.65;101180.59;6243292;28;20132;-80
2022/08/14 00:11:31;;;;;;;3.08;2.45;;;;;;;23.52;60.85;101187.25;6231869;28;20046;-80
2022/08/14 00:14:34;;;;;;;2.83;2.47;;;;;;;23.50;60.77;101186.59;6230997;28;20053;-80
2022/08/14 00:17:36;;;;;;;7.55;2.70;;;;;;;23.49;61.04;101187.59;6231535;28;20421;-81
2022/08/14 00:20:40;;;;;;;5.50;2.70;;;;;;;23.46;61.46;101189.72;6230744;28;20061;-81
2022/08/14 00:23:42;;;;;;;4.35;2.88;;;;;;;23.44;61.64;101186.38;6231474;28;20054;-78
2022/08/14 00:26:43;;;;;;;3.80;3.22;;;;;;;23.42;62.19;101193.72;6230375;28;20065;-81
2022/08/14 00:29:46;;;;;;;4.22;2.95;;;;;;;23.38;62.10;101192.34;6230625;28;20527;-81
2022/08/14 00:32:47;;;;;;;3.60;2.83;;;;;;;23.34;62.68;101189.09;6230620;28;20050;-81
2022/08/14 00:35:49;;;;;;;4.85;3.05;;;;;;;23.37;62.06;101190.66;6230493;28;20050;-81
2022/08/14 00:38:50;;;;;;;3.40;2.60;;;;;;;23.39;61.10;101189.53;6230078;28;20517;-81
2022/08/14 00:41:51;;;;;;;3.45;2.83;;;;;;;23.41;61.39;101181.31;6229967;28;20053;-81
2022/08/14 00:44:55;;;;;;;5.40;3.15;;;;;;;23.43;61.25;101182.81;6229145;28;20391;-81
2022/08/14 00:47:57;;;;;;;4.60;3.33;;;;;;;23.43;61.52;101179.28;6229016;28;20513;-81
2022/08/14 00:51:00;;;;;;;3.45;2.20;;;;;;;23.43;62.06;101173.94;6232112;28;20530;-82
2022/08/14 00:54:02;;;;;;;4.10;3.10;;;;;;;23.44;62.77;101178.31;6231712;28;20050;-81
2022/08/14 00:57:04;;;;;;;4.35;3.05;;;;;;;23.38;63.78;101178.91;6237816;28;20148;-81
2022/08/14 01:00:11;;;;;;;3.63;2.65;;;;;;;23.31;64.99;101169.81;6238754;28;20516;-81
2022/08/14 01:03:12;;;;;;;5.72;3.35;;;;;;;23.24;65.66;101181.16;6228874;28;20053;-81
2022/08/14 01:06:15;;;;;;;4.70;2.80;;;;;;;23.21;65.28;101175.25;6228689;28;20065;-81
2022/08/14 01:09:21;;;;;;;4.05;2.90;;;;;;;23.20;65.10;101174.41;6229314;28;20448;-83
2022/08/14 01:12:23;;;;;;;4.80;2.97;;;;;;;23.15;65.26;101167.81;6230620;28;20077;-79
2022/08/14 01:15:26;;;;;;;3.47;2.90;;;;;;;23.12;65.92;101158.25;6229962;28;20060;-81
2022/08/14 01:21:52;;;;;;;3.67;2.83;;;;;;;23.03;66.13;101160.03;6228481;28;20050;-81
2022/08/14 01:24:54;;;;;;;8.70;3.15;;;;;;;22.94;66.32;101158.25;6229125;28;20219;-81
2022/08/14 01:27:56;;;;;;;3.72;2.55;;;;;;;22.91;66.28;101161.22;6229061;28;20061;-81
2022/08/14 01:30:58;;;;;;;4.55;2.72;;;;;;;22.83;65.85;101142.34;6228583;28;20045;-81
2022/08/14 01:34:03;;;;;;;3.42;2.45;;;;;;;22.77;66.37;101149.16;6228759;28;20394;-81
2022/08/14 01:37:06;;;;;;;3.92;2.83;;;;;;;22.71;66.40;101139.06;6228741;28;20054;-80
2022/08/14 01:40:08;;;;;;;5.82;3.15;;;;;;;22.67;66.70;101142.19;6228500;28;20045;-80
2022/08/14 01:43:16;;;;;;;8.02;3.33;;;;;;;22.60;66.87;101146.44;6228078;28;20057;-81
2022/08/14 01:46:18;;;;;;;4.50;3.10;;;;;;;22.53;67.15;101144.38;6228850;28;20501;-81
2022/08/14 01:49:22;;;;;;;3.30;2.65;;;;;;;22.48;67.41;101148.47;6228452;28;20069;-80
2022/08/14 01:52:25;;;;;;;3.95;2.90;;;;;;;22.43;67.50;101135.53;6228310;28;20057;-80
2022/08/14 01:55:30;;;;;;;4.28;3.20;;;;;;;22.37;67.51;101124.59;6228571;28;20524;-81
2022/08/14 01:58:32;;;;;;;4.40;2.85;;;;;;;22.34;67.76;101117.69;6230348;28;20042;-81
2022/08/14 02:01:34;;;;;;;4.43;2.60;;;;;;;22.35;68.20;101121.22;6228976;28;20053;-81
2022/08/14 02:04:36;;;;;;;3.50;2.47;;;;;;;22.33;67.92;101118.69;6228294;28;20453;-81
2022/08/14 02:07:39;;;;;;;4.30;2.60;;;;;;;22.31;68.16;101117.16;6228472;28;20046;-81
2022/08/14 02:10:41;;;;;;;4.95;2.92;;;;;;;22.30;67.81;101118.97;6228566;28;20046;-81
2022/08/14 02:13:45;;;;;;;4.93;2.90;;;;;;;22.26;68.03;101112.25;6228120;28;20054;-81
2022/08/14 02:16:51;;;;;;;4.78;3.05;;;;;;;22.24;68.03;101106.19;6228834;28;20046;-81
2022/08/14 02:19:53;;;;;;;4.68;2.97;;;;;;;22.22;67.68;101106.34;6228483;28;20056;-80
2022/08/14 02:22:56;;;;;;;4.07;2.92;;;;;;;22.17;68.85;101111.31;6227971;28;20561;-81
2022/08/14 02:25:58;;;;;;;4.47;2.88;;;;;;;22.13;68.97;101099.22;6228313;28;20505;-82
2022/08/14 02:29:01;;;;;;;3.33;2.83;;;;;;;22.08;69.17;101101.47;6228246;28;20054;-81
2022/08/14 02:32:03;;;;;;;5.80;3.10;;;;;;;22.02;69.24;101092.16;6229011;28;20053;-81
2022/08/14 02:35:14;;;;;;;4.40;3.22;;;;;;;21.97;69.71;101094.44;6232255;28;20497;-79
2022/08/14 02:38:17;;;;;;;5.32;3.10;;;;;;;21.92;70.28;101088.69;6257378;28;20053;-81
2022/08/14 02:41:18;;;;;;;4.50;3.35;;;;;;;21.89;70.60;101089.00;6256745;28;20497;-81
2022/08/14 02:44:21;;;;;;;5.47;3.47;;;;;;;21.85;70.80;101092.97;6253194;28;20049;-81
2022/08/14 02:47:23;;;;;;;4.53;3.17;;;;;;;21.86;70.63;101093.81;6232287;28;20049;-82
2022/08/14 02:50:24;;;;;;;6.18;3.88;;;;;;;21.81;71.13;101093.41;6231903;28;20049;-81
2022/08/14 02:53:27;;;;;;;3.45;2.65;;;;;;;21.78;71.53;101092.69;6232562;28;20050;-81
2022/08/14 02:56:28;;;;;;;6.10;3.80;;;;;;;21.73;71.46;101089.59;6232639;28;20057;-81
2022/08/14 02:59:31;;;;;;;3.80;3.03;;;;;;;21.73;71.05;101094.97;6232551;28;20054;-81
2022/08/14 03:02:33;;;;;;;5.05;3.42;;;;;;;21.72;70.83;101089.75;6232146;28;20073;-82
2022/08/14 03:05:36;;;;;;;5.80;3.58;;;;;;;21.69;71.45;101084.69;6232405;28;20502;-81
2022/08/14 03:08:41;;;;;;;6.57;3.22;;;;;;;21.67;71.69;101076.81;6231817;28;20494;-81
2022/08/14 03:11:43;;;;;;;4.55;3.08;;;;;;;21.63;71.77;101074.59;6232249;28;20053;-81
2022/08/14 03:14:47;;;;;;;4.55;3.15;;;;;;;21.61;71.73;101066.69;6231746;28;20140;-81
2022/08/14 03:17:51;;;;;;;7.22;3.80;;;;;;;21.56;72.33;101063.59;6232218;28;20133;-81
2022/08/14 03:20:53;;;;;;;4.28;3.75;;;;;;;21.52;71.78;101065.72;6230858;28;20046;-79
2022/08/14 03:24:01;;;;;;;7.30;3.38;;;;;;;21.49;71.73;101059.84;6230775;28;20057;-81
2022/08/14 03:27:05;;;;;;;7.75;3.22;;;;;;;21.46;71.97;101057.44;6232259;28;20061;-81
2022/08/14 03:30:08;;;;;;;5.25;3.70;;;;;;;21.43;72.74;101050.53;6231364;28;20502;-78
2022/08/14 03:33:12;;;;;;;5.07;3.92;;;;;;;21.39;73.12;101048.31;6230348;28;20517;-79
2022/08/14 03:36:16;;;;;;;5.95;3.72;;;;;;;21.35;73.04;101053.13;6231517;28;20050;-81
2022/08/14 03:39:20;;;;;;;4.47;3.50;;;;;;;21.31;73.36;101051.72;6231606;28;20050;-81
2022/08/14 03:42:24;;;;;;;7.18;3.63;;;;;;;21.29;73.67;101051.81;6231843;28;20050;-81
2022/08/14 03:45:25;;;;;;;5.50;3.65;;;;;;;21.29;73.76;101045.63;6231403;28;20045;-81
2022/08/14 03:48:26;;;;;;;3.85;3.03;;;;;;;21.24;73.91;101037.19;6231591;28;20056;-81
2022/08/14 03:51:28;;;;;;;4.72;3.67;;;;;;;21.22;74.56;101041.88;6231506;28;20042;-81
2022/08/14 03:54:34;;;;;;;5.22;3.38;;;;;;;21.20;74.67;101041.16;6231706;28;20129;-81
2022/08/14 03:57:36;;;;;;;5.78;3.50;;;;;;;21.20;74.91;101041.16;6232128;28;20057;-81
2022/08/14 04:00:39;;;;;;;7.28;3.63;;;;;;;21.18;75.15;101029.75;6231258;28;20521;-80
2022/08/14 04:03:40;;;;;;;8.90;3.70;;;;;;;21.13;75.50;101018.66;6231795;28;20069;-81
2022/08/14 04:06:42;;;;;;;8.32;3.45;;;;;;;21.11;75.55;101016.13;6231331;28;20418;-81
2022/08/14 04:09:44;;;;;;;6.07;3.20;;;;;;;21.11;75.38;101021.47;6230836;28;20054;-81
2022/08/14 04:12:46;;;;;;;5.55;3.80;;;;;;;21.11;75.62;101025.97;6231439;28;20049;-81
2022/08/14 04:15:48;;;;;;;3.78;3.28;;;;;;;21.09;75.63;101018.09;6230715;28;20058;-81
2022/08/14 04:18:51;;;;;;;8.25;3.83;;;;;;;21.09;75.95;101019.94;6231880;28;20049;-82
2022/08/14 04:21:52;;;;;;;5.18;3.60;;;;;;;21.07;76.32;101013.88;6231203;28;20054;-81
2022/08/14 04:24:55;;;;;;;5.57;4.00;;;;;;;21.08;76.39;101018.25;6230011;28;20493;-81
2022/08/14 04:27:56;;;;;;;4.90;3.35;;;;;;;21.07;76.17;101013.88;6229821;28;20057;-81
2022/08/14 04:30:58;;;;;;;5.45;3.50;;;;;;;21.06;76.43;101010.38;6230094;28;20049;-81
2022/08/14 04:34:00;;;;;;;5.53;3.72;;;;;;;21.05;76.91;101008.69;6230015;28;20049;-81
2022/08/14 04:43:41;;;;;;;3.65;2.92;;;;;;;21.08;76.65;100991.53;6230681;28;20062;-83
2022/08/14 04:48:11;;;;;;;11.80;4.20;;;;;;;21.08;77.15;100989.69;6231637;28;20054;-81
2022/08/14 04:50:06;;;;;;;7.05;3.47;;;;;;;21.09;76.92;100994.06;6233768;28;20046;-81
2022/08/14 04:53:07;;;;;;;6.97;3.40;;;;;;;21.10;77.13;100986.88;6229814;28;20053;-81
2022/08/14 04:56:12;;;;;;;5.40;3.65;;;;;;;21.08;77.43;100992.38;6228840;28;20057;-81
2022/08/14 04:59:13;;;;;;;4.53;3.50;;;;;;;21.12;77.96;100993.78;6230324;28;20081;-81
2022/08/14 05:02:16;;;;;;;5.35;3.47;;;;;;;21.16;78.01;100992.47;6229719;28;20057;-82
2022/08/14 05:05:19;;;;;;;5.80;3.60;;;;;;;21.19;78.17;100986.84;6229304;28;20391;-81
2022/08/14 05:08:21;;;;;;;5.18;3.22;;;;;;;21.22;78.37;100981.22;6229827;28;20049;-81
2022/08/14 05:11:23;;;;;;;6.60;3.63;;;;;;;21.25;78.09;100983.59;6229557;28;20050;-81
2022/08/14 05:14:25;;;;;;;4.50;3.25;;;;;;;21.31;78.58;100987.56;6230464;28;20069;-82
2022/08/14 05:17:26;;;;;;;7.35;3.38;;;;;;;21.34;78.33;100978.38;6230810;28;20054;-81
2022/08/14 05:20:28;;;;;;;5.20;3.05;;;;;;;21.38;78.62;100977.94;6230512;28;20490;-81
2022/08/14 05:23:33;;;;;;;6.07;3.78;;;;;;;21.42;78.02;100989.19;6230986;28;20050;-81
2022/08/14 05:26:40;;;;;;;4.82;3.15;;;;;;;21.42;77.87;100989.19;6230033;28;20053;-81
2022/08/14 05:29:43;;;;;;;10.32;3.85;;;;;;;21.43;77.59;100985.53;6230751;28;20109;-81
2022/08/14 05:32:44;;;;;;;5.00;3.90;;;;;;;21.44;77.22;100977.38;6229246;28;20425;-81
2022/08/14 05:35:47;;;;;;;4.85;3.50;;;;;;;21.44;77.83;100972.03;6232041;28;20413;-81
2022/08/14 05:38:48;;;;;;;5.43;4.00;;;;;;;21.46;78.18;100975.41;6230564;28;20489;-81
2022/08/14 05:41:51;;;;;;;5.75;3.80;;;;;;;21.48;78.11;100970.75;6229507;28;20041;-81
2022/08/14 05:44:53;;;;;;;6.45;3.95;;;;;;;21.49;78.50;100976.94;6229976;28;20421;-81
2022/08/14 05:47:54;;;;;;;5.57;4.07;;;;;;;21.51;78.09;100975.78;6229806;28;20074;-81
2022/08/14 05:50:56;;;;;;;4.80;4.22;;;;;;;21.55;78.81;100970.16;6230764;28;20714;-81
2022/08/14 05:53:58;;;;;;;5.32;3.75;;;;;;;21.57;78.76;100979.69;6229941;28;20049;-80
2022/08/14 05:57:01;;;;;;;4.03;3.60;;;;;;;21.62;78.66;100971.22;6229639;28;20046;-81
2022/08/14 06:00:03;;;;;;;4.55;3.42;;;;;;;21.66;79.40;100980.66;6229878;28;20506;-81
2022/08/14 06:03:07;;;;;;;7.18;4.57;;;;;;;21.69;79.11;100980.38;6229794;28;20045;-81
2022/08/14 06:06:09;;;;;;;5.03;3.95;;;;;;;21.73;78.97;100973.72;6230956;28;20493;-81
2022/08/14 06:09:10;;;;;;;6.22;4.25;;;;;;;21.78;79.20;100974.13;6234831;28;20057;-81
2022/08/14 06:12:13;;;;;;;4.90;3.65;;;;;;;21.81;79.04;100973.00;6234444;28;20060;-79
2022/08/14 06:15:14;;;;;;;5.85;3.95;;;;;;;21.79;79.62;100971.28;6232639;28;20409;-78
2022/08/14 06:18:16;;;;;;;5.55;3.75;;;;;;;21.83;80.22;100971.00;6231799;28;20526;-79
2022/08/14 06:21:17;;;;;;;5.50;4.07;;;;;;;21.87;79.51;100972.38;6232965;28;20053;-79
2022/08/14 06:24:19;;;;;;;5.65;3.88;;;;;;;21.92;80.50;100972.78;6231714;28;20054;-81
2022/08/14 06:27:22;;;;;;;5.82;3.63;;;;;;;21.95;80.33;100964.47;6234597;28;20049;-80
2022/08/14 06:30:26;;;;;;;5.53;3.67;;;;;;;21.99;81.19;100960.50;6233337;28;20046;-80
2022/08/14 06:33:27;;;;;;;7.38;3.50;;;;;;;22.03;81.35;100954.69;6233479;28;20061;-80
2022/08/14 06:36:29;;;;;;;5.18;3.58;;;;;;;22.09;81.00;100949.72;6233477;28;20057;-80
2022/08/14 06:39:30;;;;;;;5.97;3.60;;;;;;;22.14;81.12;100953.66;6233984;28;20136;-80
2022/08/14 06:42:33;;;;;;;5.82;3.40;;;;;;;22.20;81.13;100960.22;6234525;28;20049;-80
2022/08/14 06:45:36;;;;;;;4.85;3.28;;;;;;;22.23;80.91;100954.56;6233491;28;20049;-80
2022/08/14 06:48:37;;;;;;;5.22;3.38;;;;;;;22.29;80.32;100956.63;6234727;28;20073;-80
2022/08/14 06:51:40;;;;;;;6.30;3.67;;;;;;;22.37;79.76;100967.44;6233142;28;20461;-79
2022/08/14 06:54:41;;;;;;;4.72;3.03;;;;;;;22.43;79.77;100960.59;6232895;28;20137;-80
2022/08/14 06:57:46;;;;;;;4.97;3.60;;;;;;;22.46;79.39;100961.16;6233060;28;20497;-79
2022/08/14 07:07:23;;;;;;;3.90;2.97;;;;;;;22.63;78.85;100964.81;6232654;28;20082;-80
2022/08/14 07:10:24;;;;;;;3.50;2.72;;;;;;;22.68;78.70;100954.47;6232847;28;20056;-80
2022/08/14 07:13:27;;;;;;;4.47;3.30;;;;;;;22.72;78.56;100953.16;6233265;28;20056;-79
2022/08/14 07:16:29;;;;;;;4.40;3.10;;;;;;;22.76;78.18;100954.53;6243949;28;20056;-81
2022/08/14 07:19:30;;;;;;;4.78;3.33;;;;;;;22.82;78.23;100952.22;6251023;28;20053;-79
2022/08/14 07:22:31;;;;;;;5.35;2.85;;;;;;;22.86;78.46;100961.66;6253933;28;20501;-80
2022/08/14 07:25:41;;;;;;;4.28;2.92;;;;;;;22.89;77.97;100959.53;6237316;28;20059;-79
2022/08/14 07:28:44;;;;;;;4.25;3.00;;;;;;;22.95;77.75;100956.22;6243197;28;20607;-80
2022/08/14 07:31:45;;;;;;;4.55;3.30;;;;;;;23.01;77.99;100968.13;6240303;28;20502;-80
2022/08/14 07:34:47;;;;;;;3.58;2.78;;;;;;;23.11;77.06;100966.19;6214678;28;20061;-80
2022/08/14 07:37:48;;;;;;;3.88;2.88;;;;;;;23.16;77.14;100957.66;6238547;28;20501;-80
2022/08/14 07:40:51;;;;;;;4.88;3.10;;;;;;;23.20;77.03;100959.03;6232231;28;20045;-80
2022/08/14 07:43:54;;;;;;;3.85;2.95;;;;;;;23.21;76.84;100955.34;6232514;28;20053;-80
2022/08/14 07:46:55;;;;;;;5.50;3.28;;;;;;;23.24;76.35;100958.56;6232598;28;20061;-79
2022/08/14 07:50:01;;;;;;;3.60;3.00;;;;;;;23.28;75.75;100962.63;6232042;28;20057;-80
2022/08/14 07:53:02;;;;;;;4.15;3.20;;;;;;;23.39;75.79;100958.84;6231467;28;20048;-80
2022/08/14 07:56:04;;;;;;;5.43;3.53;;;;;;;23.48;75.81;100965.06;6238087;28;20049;-80
2022/08/14 07:59:06;;;;;;;6.60;3.35;;;;;;;23.50;74.64;100965.75;6258126;28;20053;-81
2022/08/14 08:02:10;;;;;;;5.72;3.63;;;;;;;23.52;75.01;100958.38;6244344;28;20049;-81
2022/08/14 08:05:12;;;;;;;6.93;3.42;;;;;;;23.57;75.01;100956.03;6258786;28;20057;-81
2022/08/14 08:08:16;;;;;;;4.30;2.95;;;;;;;23.68;74.04;100952.28;6269297;28;20072;-80
2022/08/14 08:11:18;;;;;;;5.13;3.17;;;;;;;23.74;73.63;100955.13;6269941;28;20042;-80
2022/08/14 08:14:21;;;;;;;4.88;3.47;;;;;;;23.82;73.73;100961.56;6249039;28;20057;-81
2022/08/14 08:17:23;;;;;;;4.93;3.70;;;;;;;23.90;71.83;100962.41;6243398;28;20050;-80
2022/08/14 08:20:27;;;;;;;5.55;3.65;;;;;;;23.97;72.13;100958.06;6244297;28;20049;-81
2022/08/14 08:23:32;;;;;;;6.88;3.53;;;;;;;24.05;71.61;100951.88;6244280;28;20106;-80
2022/08/14 08:26:33;;;;;;;4.78;3.33;;;;;;;24.06;72.36;100948.19;6242831;28;20046;-81
2022/08/14 08:29:37;;;;;;;4.70;3.35;;;;;;;24.17;71.42;100945.19;6249169;28;20128;-80
2022/08/14 08:32:40;;;;;;;5.93;3.28;;;;;;;24.24;70.61;100950.72;6267982;28;20049;-81
2022/08/14 08:35:42;;;;;;;7.28;4.20;;;;;;;24.28;70.88;100944.84;6269343;28;20195;-82
2022/08/14 08:38:44;;;;;;;4.38;3.50;;;;;;;24.33;71.03;100948.91;6270558;28;20049;-81
2022/08/14 08:41:47;;;;;;;5.55;3.55;;;;;;;24.36;70.52;100944.03;6268929;28;20045;-81
2022/08/14 08:44:54;;;;;;;5.70;3.20;;;;;;;24.37;69.59;100942.22;6249155;28;20465;-81
2022/08/14 08:47:55;;;;;;;4.65;3.25;;;;;;;24.43;69.40;100938.84;6255332;28;20050;-81
2022/08/14 08:50:58;;;;;;;5.88;3.30;;;;;;;24.48;69.53;100926.63;6269197;28;20049;-80
2022/08/14 08:54:01;;;;;;;4.75;3.55;;;;;;;24.55;69.03;100916.84;6269190;28;20049;-81
2022/08/14 08:57:02;;;;;;;7.35;3.60;;;;;;;24.67;68.43;100921.91;6270065;28;20054;-81
2022/08/14 09:00:16;;;;;;;5.57;3.70;;;;;;;24.75;67.73;100906.63;6254978;28;20128;-81
2022/08/14 09:03:20;;;;;;;6.20;3.90;;;;;;;24.77;68.32;100904.56;6256926;28;20125;-81
2022/08/14 09:06:21;;;;;;;4.38;3.33;;;;;;;24.86;67.39;100897.34;6257819;28;20513;-81
2022/08/14 09:09:24;;;;;;;5.60;3.58;;;;;;;24.92;67.82;100885.88;6247343;28;20080;-81
2022/08/14 09:12:27;;;;;;;6.07;3.60;;;;;;;24.94;68.13;100891.13;6253160;28;20048;-81
2022/08/14 09:15:30;;;;;;;6.35;3.83;;;;;;;25.04;66.85;100887.22;6262014;28;20045;-81
2022/08/14 09:18:31;;;;;;;4.57;3.33;;;;;;;25.15;65.75;100886.03;6264677;28;20056;-81
2022/08/14 09:21:34;;;;;;;4.47;3.22;;;;;;;25.16;66.35;100876.94;6260935;28;20461;-83
2022/08/14 09:24:35;;;;;;;3.75;3.13;;;;;;;25.22;64.98;100870.88;6256038;28;20043;-82
2022/08/14 09:27:37;;;;;;;4.53;3.20;;;;;;;25.36;64.46;100868.47;6255520;28;20049;-82
2022/08/14 09:30:43;;;;;;;5.38;3.58;;;;;;;25.45;63.64;100870.94;6266014;28;20049;-82
2022/08/14 09:34:03;;;;;;;3.58;3.08;;;;;;;25.55;62.42;100862.66;6264870;28;20049;-81
2022/08/14 09:37:15;;;;;;;4.97;3.35;;;;;;;25.58;62.16;100848.84;6252616;28;20073;-82
2022/08/14 09:40:27;;;;;;;5.65;3.25;;;;;;;25.67;62.81;100850.47;6240333;28;20060;-80
2022/08/14 09:43:33;;;;;;;3.55;2.75;;;;;;;25.79;61.33;100850.91;6240192;28;20050;-81
2022/08/14 09:46:36;;;;;;;4.68;3.17;;;;;;;25.76;61.26;100848.59;6252780;28;20060;-80
2022/08/14 09:49:39;;;;;;;4.07;3.05;;;;;;;25.77;60.85;100839.50;6250949;28;20058;-83
2022/08/14 09:52:48;;;;;;;4.65;3.75;;;;;;;25.75;61.15;100834.28;6245866;28;20092;-80
2022/08/14 09:55:58;;;;;;;4.60;3.60;;;;;;;25.88;61.17;100824.78;6255381;28;20575;-80
2022/08/14 09:59:13;;;;;;;4.28;2.72;;;;;;;26.00;60.33;100824.19;6268330;28;20041;-82
2022/08/14 10:02:25;;;;;;;4.88;2.83;;;;;;;26.27;58.28;100821.94;6257854;28;20042;-80
2022/08/14 10:05:29;;;;;;;4.45;3.13;;;;;;;26.28;57.71;100815.50;6237113;28;20106;-81
2022/08/14 10:08:40;;;;;;;4.55;2.90;;;;;;;26.34;58.05;100816.63;6243857;28;20042;-81
2022/08/14 10:11:54;;;;;;;4.35;2.78;;;;;;;26.45;57.82;100808.16;6243148;28;20056;-84
2022/08/14 10:14:55;;;;;;;4.55;3.08;;;;;;;26.59;56.99;100809.19;6257990;28;20055;-81
2022/08/14 10:18:08;;;;;;;3.78;2.90;;;;;;;26.68;56.99;100808.06;6258223;28;20057;-81
2022/08/14 10:21:16;;;;;;;4.40;3.08;;;;;;;26.76;57.63;100806.13;6258171;28;20115;-81
2022/08/14 10:24:23;;;;;;;5.07;3.10;;;;;;;26.80;56.90;100798.50;6257389;28;20579;-81
2022/08/14 10:27:25;;;;;;;5.15;3.33;;;;;;;26.86;56.42;100796.91;6256105;28;20521;-81
2022/08/14 10:30:36;;;;;;;4.75;3.15;;;;;;;26.89;57.21;100789.28;6256059;28;20049;-80
2022/08/14 10:33:39;;;;;;;5.03;3.40;;;;;;;26.99;56.06;100794.41;6255998;28;20049;-80
2022/08/14 10:36:42;;;;;;;3.88;2.90;;;;;;;27.17;54.42;100796.72;6254517;28;20045;-81
2022/08/14 10:39:45;;;;;;;6.80;3.10;;;;;;;27.26;53.06;100784.78;6255988;28;20046;-81
2022/08/14 10:42:47;;;;;;;3.42;2.88;;;;;;;27.27;54.00;100776.50;6258578;28;20120;-82
2022/08/14 10:45:54;;;;;;;3.42;2.85;;;;;;;27.28;54.56;100764.66;6260913;28;20097;-81
2022/08/14 10:48:59;;;;;;;4.70;3.10;;;;;;;27.29;54.33;100765.50;6255642;28;20072;-82
2022/08/14 10:52:05;;;;;;;5.10;3.67;;;;;;;27.27;53.57;100763.00;6257150;28;20722;-81
2022/08/14 10:55:08;;;;;;;3.75;2.88;;;;;;;27.40;53.39;100758.78;6261061;28;20175;-81
2022/08/14 10:58:10;;;;;;;4.03;2.85;;;;;;;27.73;52.08;100743.75;6259953;28;20049;-82
2022/08/14 11:01:13;;;;;;;5.65;3.15;;;;;;;27.89;51.39;100755.31;6259292;28;20053;-81
2022/08/14 11:04:27;;;;;;;4.93;3.13;;;;;;;27.97;50.64;100741.66;6258546;28;20045;-81
2022/08/14 11:07:30;;;;;;;4.45;2.67;;;;;;;28.10;50.04;100724.72;6258287;28;20049;-80
2022/08/14 11:10:40;;;;;;;5.30;3.50;;;;;;;28.28;49.67;100717.78;6259952;28;20053;-80
2022/08/14 11:13:45;;;;;;;3.72;3.13;;;;;;;28.52;48.71;100723.75;6258830;28;20049;-82
2022/08/14 11:16:48;;;;;;;3.70;2.65;;;;;;;28.62;48.24;100716.16;6261229;28;20056;-80
2022/08/14 11:19:55;;;;;;;4.45;2.95;;;;;;;28.83;48.30;100720.59;6259034;28;20655;-81
2022/08/14 11:22:59;;;;;;;4.68;2.80;;;;;;;29.03;46.21;100708.00;6247207;28;20050;-81
2022/08/14 11:26:01;;;;;;;3.95;3.08;;;;;;;29.18;45.70;100710.53;6250126;28;20054;-80
2022/08/14 11:29:04;;;;;;;4.75;2.67;;;;;;;29.32;45.92;100709.53;6235456;28;20057;-80
2022/08/14 11:32:08;;;;;;;4.22;2.72;;;;;;;29.59;45.18;100706.03;6254776;28;20053;-79
2022/08/14 11:35:19;;;;;;;3.97;2.60;;;;;;;29.59;44.54;100696.03;6249206;28;20056;-79
2022/08/14 11:38:21;;;;;;;4.45;3.08;;;;;;;29.44;43.89;100698.94;6231994;28;20068;-80
2022/08/14 11:41:22;;;;;;;4.20;2.70;;;;;;;29.45;44.41;100695.16;6232666;28;20050;-80
2022/08/14 11:44:23;;;;;;;5.20;3.13;;;;;;;29.70;44.18;100692.69;6234279;28;20064;-79
2022/08/14 11:47:25;;;;;;;4.80;2.72;;;;;;;30.08;43.48;100687.47;6245628;28;20053;-80
2022/08/14 11:50:30;;;;;;;4.75;2.83;;;;;;;30.42;43.09;100690.13;6247988;28;20061;-80
2022/08/14 11:53:32;;;;;;;3.80;2.60;;;;;;;30.63;41.62;100684.41;6257236;28;20045;-79
2022/08/14 11:56:38;;;;;;;6.22;3.63;;;;;;;30.94;40.54;100680.13;6256569;28;20433;-79
2022/08/14 11:59:39;;;;;;;4.05;2.83;;;;;;;31.20;39.61;100689.97;6242329;28;20100;-80
2022/08/14 12:02:52;;;;;;;4.05;2.70;;;;;;;31.30;38.52;100688.50;6243276;28;20038;-79
2022/08/14 12:06:04;;;;;;;4.15;3.10;;;;;;;31.46;39.03;100689.81;6244244;28;20041;-80
2022/08/14 12:09:05;;;;;;;3.65;2.60;;;;;;;31.87;38.26;100680.31;6241099;28;20485;-81
2022/08/14 12:12:14;;;;;;;4.97;2.53;;;;;;;31.80;37.86;100679.53;6236720;28;20061;-79
2022/08/14 12:15:15;;;;;;;3.72;2.75;;;;;;;31.55;38.88;100674.91;6245285;28;20046;-80
2022/08/14 12:18:18;;;;;;;3.55;2.60;;;;;;;31.48;38.73;100663.28;6257184;28;20136;-80
2022/08/14 12:21:23;;;;;;;3.78;2.55;;;;;;;31.38;38.54;100660.22;6260995;28;20539;-79
2022/08/14 12:24:29;;;;;;;5.38;3.10;;;;;;;31.17;38.61;100669.53;6261323;28;20134;-80
2022/08/14 12:27:38;;;;;;;3.15;2.50;;;;;;;30.74;39.37;100650.38;6260510;28;20045;-81
2022/08/14 12:30:42;;;;;;;3.58;2.50;;;;;;;30.41;40.31;100654.03;6260617;28;20445;-80
2022/08/14 12:33:54;;;;;;;4.03;2.70;;;;;;;30.16;41.15;100650.34;6258702;28;20417;-80
2022/08/14 12:37:04;;;;;;;4.40;2.90;;;;;;;30.08;41.35;100645.97;6260480;28;20493;-80
2022/08/14 12:40:10;;;;;;;3.08;2.33;;;;;;;30.03;42.11;100643.91;6261082;28;20045;-78
2022/08/14 12:43:12;;;;;;;4.05;2.50;;;;;;;29.98;41.93;100630.16;6260081;28;20045;-80
2022/08/14 12:46:22;;;;;;;5.28;2.95;;;;;;;30.02;42.39;100622.41;6260534;28;20094;-79
2022/08/14 12:49:24;;;;;;;4.55;3.15;;;;;;;30.03;42.58;100622.22;6259883;28;20053;-81
2022/08/14 12:52:33;;;;;;;4.28;3.00;;;;;;;29.97;43.15;100606.78;6259356;28;20049;-80
2022/08/14 12:55:35;;;;;;;6.85;3.25;;;;;;;29.97;42.83;100611.38;6260745;28;20053;-79
2022/08/14 12:58:36;;;;;;;4.60;2.95;;;;;;;30.30;41.80;100601.31;6258826;28;20053;-80
2022/08/14 13:01:38;;;;;;;3.35;2.58;;;;;;;30.27;43.35;100595.47;6258924;28;20060;-79
2022/08/14 13:04:40;;;;;;;4.32;2.63;;;;;;;30.74;42.60;100598.81;6258349;28;20045;-80
2022/08/14 13:07:43;;;;;;;4.10;2.55;;;;;;;31.26;39.37;100578.59;6258816;28;20084;-79
2022/08/14 13:10:47;;;;;;;5.28;2.90;;;;;;;31.51;39.71;100580.50;6259557;28;20046;-80
2022/08/14 13:13:49;;;;;;;5.57;2.20;;;;;;;31.20;39.61;100574.03;6259983;28;20413;-80
2022/08/14 13:16:53;;;;;;;4.95;2.45;;;;;;;30.91;38.99;100567.38;6259361;28;20076;-80
2022/08/14 13:19:57;;;;;;;4.85;2.80;;;;;;;31.24;38.24;100569.81;6258102;28;20077;-79
2022/08/14 13:23:01;;;;;;;3.25;2.70;;;;;;;31.83;37.90;100564.94;6260022;28;20141;-81
2022/08/14 13:26:02;;;;;;;2.63;2.28;;;;;;;32.35;36.89;100553.66;6261318;28;20049;-81
2022/08/14 13:29:06;;;;;;;3.30;2.20;;;;;;;32.68;35.86;100548.59;6262041;28;20056;-81
2022/08/14 13:32:08;;;;;;;4.20;2.42;;;;;;;33.09;34.89;100544.19;6257322;28;20117;-81
2022/08/14 13:35:11;;;;;;;2.75;2.38;;;;;;;33.20;34.49;100531.66;6254945;28;20045;-79
2022/08/14 13:38:19;;;;;;;4.20;2.30;;;;;;;33.30;33.42;100526.47;6257025;28;20549;-79
2022/08/14 13:41:22;;;;;;;4.60;2.45;;;;;;;33.35;34.51;100526.56;6255393;28;20103;-80
2022/08/14 13:44:26;;;;;;;6.38;2.53;;;;;;;33.53;32.84;100525.66;6256289;28;20045;-80
2022/08/14 13:47:31;;;;;;;7.13;2.33;;;;;;;33.61;33.22;100521.72;6260066;28;20611;-81
2022/08/14 13:50:32;;;;;;;3.70;2.47;;;;;;;33.76;32.51;100509.25;6256270;28;20104;-79
2022/08/14 13:53:45;;;;;;;4.25;2.17;;;;;;;33.83;32.44;100496.28;6253981;28;20045;-80
2022/08/14 13:56:48;;;;;;;3.33;2.28;;;;;;;34.13;32.26;100484.38;6253920;28;20072;-79
2022/08/14 13:59:50;;;;;;;4.00;2.70;;;;;;;34.20;32.00;100486.94;6253963;28;20500;-80
2022/08/14 14:02:55;;;;;;;2.85;2.33;;;;;;;34.36;32.00;100485.34;6255465;28;20136;-80
2022/08/14 14:05:57;;;;;;;3.67;2.70;;;;;;;33.94;31.93;100480.16;6255196;28;20061;-80
2022/08/14 14:09:02;;;;;;;3.03;2.25;;;;;;;33.64;32.76;100467.53;6253156;28;20052;-81
2022/08/14 14:12:06;;;;;;;3.03;2.40;;;;;;;33.82;32.76;100472.00;6255298;28;20049;-79
2022/08/14 14:15:10;;;;;;;2.65;2.42;;;;;;;33.64;32.01;100473.00;6254719;28;20045;-81
2022/08/14 14:18:13;;;;;;;4.38;3.00;;;;;;;33.80;32.30;100485.06;6253345;28;20136;-80
2022/08/14 14:21:17;;;;;;;3.90;2.72;;;;;;;33.94;32.17;100480.97;6255485;28;20049;-80
2022/08/14 14:24:20;;;;;;;3.13;2.45;;;;;;;33.98;31.74;100478.63;6243015;28;20050;-79
2022/08/14 14:27:22;;;;;;;3.15;2.58;;;;;;;33.67;31.41;100482.59;6247712;28;20046;-80
2022/08/14 14:30:26;;;;;;;3.47;2.70;;;;;;;33.31;31.62;100490.78;6248240;28;20050;-80